Iowa City, IA

6:43 AM CDT on October 23, 2014 (GMT -0500)
Village Green - East Side | Change Station
CLOSE
Current Station
Personal Weather Station
Location: Iowa City, IA
Elevation: 750 ft
Nearby Weather Stations

Elev 750 ft 41.65 °N, 91.49 °W | Updated 18 seconds ago

Overcast
Overcast
45.8 °F
Feels Like 46 °F
N
0.0
Wind Variable Wind from South
Gusts 1.0 mph

Today
High -- | Low -- °F
--% Chance of Precip.
Yesterday
High -- | Low -- °F
Precip. -- in
7:27 AM 6:12 PM
Waning Crescent, 0% visible
Pressure 30.15 in
Visibility 10.0 miles
Clouds Overcast 3800 ft
Windchill 46 °F
Dew Point 42 °F
Humidity 85%
Rainfall 0.00 in
Snow Depth Not available.
UV 0 out of 12
Pollen .30 out of 12
Air Quality Not available.
Flu Activity Sporadic
METAR KIOW 231052Z AUTO 12005KT 10SM OVC038 08/05 A3014 RMK AO2 SLP208 T00780050

More Conditions Fewer Conditions

Pressure 30.15 in
Visibility 10.0 miles
Clouds Overcast 3800 ft
Windchill 46 °F
Dew Point 42 °F
Humidity 85%
Rainfall 0.00 in
Snow Depth Not available.
UV 0 out of 12
Pollen .30 out of 12
Air Quality Not available.
Flu Activity Sporadic
METAR KIOW 231052Z AUTO 12005KT 10SM OVC038 08/05 A3014 RMK AO2 SLP208 T00780050

More Conditions Fewer Conditions

10-Day Weather Forecast

Almanac

Astronomy

Oct. 23, 2014 Rise Set
Actual Time 7:27 AM CDT 6:12 PM CDT
Civil Twilight 6:59 AM CDT 6:41 PM CDT
Nautical Twilight 6:26 AM CDT 7:13 PM CDT
Astronomical Twilight 5:54 AM CDT 7:45 PM CDT
Moon 7:07 AM CDT 6:14 PM CDT
Length of Visible Light 11h 42m
Length of Day
10h 45m
Tomorrow will be 2m 35s shorter.
Waning Crescent, 0% of the Moon is Illuminated
Today
Waning Crescent
Oct 23
New
Oct 30
First Quarter
Nov 6
Full
Nov 14
Last Quarter

Today's Extremes

State Highs State Lows

Community

WunderPhotos

Upload Photos

1,764,209 photos uploaded!

Nearby

Snow Depth

Station Depth Elevation
No new snow has been reported.

Earthquake Activity

City Distance Mag. Time & Date
No recent earthquake activity has been reported nearby.
Minimum magnitude displayed is 2.5.

Coastal Water Temperatures

Place Temperature
No Stations Reporting

Nearby Weather Stations